»·PEaware :: N782S KSMX-KSBA

N782S :: KSMX-KSBA

FLIGHT INFORMATION

Flight Status: Arrived
Operator: Privately registered:
United States
More flights under this callsign
Pilot: Matt D. (322)
Aircraft: CHRISTEN A-1 HUSKY
(HUSK)
More flights by this aircraft type
Origin: KSMX Santa Maria Pub/Capt Hancock
United States
Destination: KSBA Santa Barbara Mun
United States
More flights between these airports :: More routes between these airports
Route: BUELT2 GVO
File this flight plan on PilotEdge
Remarks:
Altitude:
(Current/Filed)
7,000ft
Speed:
(Current/Filed)
100kts
Departed: 29-Dec-13 05:59 PM
Arrived: 29-Dec-13 06:29 PM
Distance/Time
Traveled:
89nm/0:30
Distance/Time
To Go:
Arrived

Flight Plot

Page will automatically refresh every two minutes.


Map Options




Map Legend


Flown Route
Filed Route
Departure Airport
Arrival Airport
Navaid (VOR, NDB)
Fix

Horizontal Profiles

Position Reports

Time Latitude Longitude Heading Altitude Ground
Speed
29-Dec-13 17:37 34.898849 -120.448088 316 263ft 0kts
29-Dec-13 17:38 34.898849 -120.448088 316 263ft 0kts
29-Dec-13 17:39 34.898849 -120.448088 316 263ft 0kts
29-Dec-13 17:40 34.898849 -120.448088 316 263ft 0kts
29-Dec-13 17:41 34.898849 -120.448088 316 263ft 0kts
29-Dec-13 17:42 34.898849 -120.448088 316 263ft 0kts
29-Dec-13 17:43 34.898849 -120.448088 316 263ft 0kts
29-Dec-13 17:44 34.898849 -120.448088 316 263ft 0kts
29-Dec-13 17:45 34.898849 -120.448088 316 263ft 0kts
29-Dec-13 17:46 34.898849 -120.448088 316 263ft 0kts
29-Dec-13 17:47 34.898849 -120.448088 316 263ft 0kts
29-Dec-13 17:48 34.898849 -120.448088 316 263ft 0kts
29-Dec-13 17:49 34.898245 -120.448426 187 263ft 6kts
29-Dec-13 17:50 34.897033 -120.448389 135 263ft 8kts
29-Dec-13 17:51 34.895144 -120.446200 136 263ft 13kts
29-Dec-13 17:52 34.893920 -120.444928 252 263ft 0kts
29-Dec-13 17:53 34.893920 -120.444928 252 263ft 0kts
29-Dec-13 17:54 34.893920 -120.444928 252 263ft 0kts
29-Dec-13 17:55 34.893907 -120.444962 237 263ft 1kts
29-Dec-13 17:56 34.893380 -120.445264 216 263ft 0kts
29-Dec-13 17:57 34.895155 -120.448550 315 265ft 75kts
29-Dec-13 17:58 34.896500 -120.464643 206 1536ft 77kts
29-Dec-13 17:59 34.877656 -120.457305 151 2827ft 83kts
29-Dec-13 18:00 34.857463 -120.440576 148 3889ft 96kts
29-Dec-13 18:01 34.837235 -120.424656 144 5025ft 92kts
29-Dec-13 18:02 34.817058 -120.407253 145 6007ft 93kts
29-Dec-13 18:03 34.795668 -120.389988 142 6985ft 95kts
29-Dec-13 18:04 34.773398 -120.371302 146 7061ft 116kts
29-Dec-13 18:05 34.747655 -120.349590 142 7038ft 119kts
29-Dec-13 18:06 34.722026 -120.327181 154 7076ft 114kts
29-Dec-13 18:07 34.696058 -120.303913 151 7142ft 116kts
29-Dec-13 18:08 34.670162 -120.283607 161 7065ft 116kts
29-Dec-13 18:09 34.645216 -120.263343 134 7051ft 121kts
29-Dec-13 18:10 34.625410 -120.233617 138 7021ft 117kts
29-Dec-13 18:11 34.602576 -120.205338 132 7009ft 119kts
29-Dec-13 18:12 34.583164 -120.172747 130 7079ft 119kts
29-Dec-13 18:13 34.562764 -120.141537 134 7063ft 117kts
29-Dec-13 18:14 34.544068 -120.110824 127 7057ft 118kts
29-Dec-13 18:15 34.527548 -120.078632 124 7087ft 118kts
29-Dec-13 18:16 34.511117 -120.046128 129 7057ft 120kts
29-Dec-13 18:17 34.494810 -120.013691 111 6934ft 108kts
29-Dec-13 18:18 34.488956 -119.973056 100 6174ft 128kts
29-Dec-13 18:19 34.482987 -119.930355 100 5532ft 127kts
29-Dec-13 18:20 34.477426 -119.890786 100 5071ft 122kts
29-Dec-13 18:21 34.469978 -119.853085 109 4999ft 117kts
29-Dec-13 18:22 34.464136 -119.816736 99 4670ft 93kts
29-Dec-13 18:23 34.451021 -119.799238 177 3452ft 72kts
29-Dec-13 18:24 34.434658 -119.802974 171 2391ft 65kts
29-Dec-13 18:25 34.427903 -119.817730 332 1083ft 51kts
29-Dec-13 18:26 34.428054 -119.832465 250 300ft 46kts
29-Dec-13 18:27 34.428102 -119.841544 343 15ft 6kts
29-Dec-13 18:28 34.429964 -119.842059 19 15ft 6kts
29-Dec-13 18:29 34.430966 -119.839066 64 15ft 15kts
29-Dec-13 18:30 34.432503 -119.835718 323 15ft 8kts
29-Dec-13 18:31 34.432532 -119.835894 270 15ft 0kts
29-Dec-13 18:32 34.432532 -119.835894 270 15ft 0kts
29-Dec-13 18:33 34.432532 -119.835894 270 15ft 0kts
29-Dec-13 18:34 34.432532 -119.835894 270 15ft 0kts
29-Dec-13 18:37 36.328252 -119.951411 111 237ft 0kts

Navigation Log

Ident Type
Flight plan parsing failed, navigation log unavailable